createdAt,value
2019-03-18T00:01:35.618Z,4.70
2019-03-18T00:04:23.552Z,4.70
2019-03-18T00:07:11.481Z,4.70
2019-03-18T00:09:59.377Z,4.80
2019-03-18T00:12:47.307Z,4.80
2019-03-18T00:18:28.288Z,4.90
2019-03-18T00:21:16.213Z,4.90
2019-03-18T00:24:04.457Z,4.90
2019-03-18T00:26:52.358Z,4.90
2019-03-18T00:29:33.610Z,5.00
2019-03-18T00:32:02.265Z,4.90
2019-03-18T00:34:30.861Z,4.90
2019-03-18T00:36:59.420Z,4.60
2019-03-18T00:39:27.977Z,5.00
2019-03-18T00:41:56.589Z,5.00
2019-03-18T00:44:25.199Z,5.10
2019-03-18T00:46:53.760Z,5.10
2019-03-18T00:49:22.417Z,5.10
2019-03-18T00:51:50.987Z,5.10
2019-03-18T00:54:19.524Z,5.10
2019-03-18T01:00:00.686Z,5.20
2019-03-18T01:02:50.244Z,5.10
2019-03-18T01:05:38.136Z,5.10
2019-03-18T01:08:26.136Z,5.20
2019-03-18T01:11:14.029Z,5.20
2019-03-18T01:14:01.969Z,5.10
2019-03-18T01:16:49.885Z,5.10
2019-03-18T01:19:37.832Z,5.00
2019-03-18T01:22:25.728Z,5.00
2019-03-18T01:25:13.656Z,4.90
2019-03-18T01:28:01.557Z,4.80
2019-03-18T01:30:42.793Z,4.70
2019-03-18T01:33:23.430Z,4.60
2019-03-18T01:36:04.640Z,4.50
2019-03-18T01:38:44.913Z,4.50
2019-03-18T01:41:25.429Z,4.50
2019-03-18T01:44:06.647Z,4.50
2019-03-18T01:46:47.489Z,4.50
2019-03-18T01:49:28.855Z,4.50
2019-03-18T01:52:09.256Z,4.50
2019-03-18T01:54:50.419Z,4.50
2019-03-18T01:57:31.096Z,4.60
2019-03-18T02:00:11.904Z,4.60
2019-03-18T02:02:52.816Z,4.60
2019-03-18T02:05:33.265Z,4.60
2019-03-18T02:08:14.072Z,4.70
2019-03-18T02:10:55.045Z,4.60
2019-03-18T02:13:35.470Z,4.60
2019-03-18T02:16:16.153Z,4.60
2019-03-18T02:18:56.497Z,4.60
2019-03-18T02:21:37.303Z,4.50
2019-03-18T02:24:18.554Z,4.50
2019-03-18T02:26:58.956Z,4.50
2019-03-18T02:29:40.141Z,4.50
2019-03-18T02:32:21.076Z,4.50
2019-03-18T02:35:01.790Z,4.60
2019-03-18T02:37:42.798Z,4.50
2019-03-18T02:40:23.958Z,4.50
2019-03-18T02:43:05.152Z,4.50
2019-03-18T02:45:46.189Z,4.40
2019-03-18T02:48:27.242Z,4.40
2019-03-18T02:51:08.591Z,4.50
2019-03-18T02:53:48.930Z,4.50
2019-03-18T02:56:29.671Z,4.50
2019-03-18T02:59:10.041Z,4.50
2019-03-18T03:01:51.008Z,4.50
2019-03-18T03:04:31.495Z,4.50
2019-03-18T03:07:12.518Z,4.60
2019-03-18T03:09:53.003Z,4.50
2019-03-18T03:12:33.924Z,4.50
2019-03-18T03:15:14.536Z,4.50
2019-03-18T03:17:55.113Z,4.50
2019-03-18T03:20:35.823Z,4.50
2019-03-18T03:23:16.196Z,4.50
2019-03-18T03:25:56.782Z,4.50
2019-03-18T03:28:37.657Z,4.50
2019-03-18T03:31:18.094Z,4.50
2019-03-18T03:33:58.796Z,4.50
2019-03-18T03:36:39.708Z,4.60
2019-03-18T03:39:20.205Z,4.50
2019-03-18T03:42:00.775Z,4.50
2019-03-18T03:44:41.993Z,4.50
2019-03-18T03:47:23.168Z,4.60
2019-03-18T03:50:04.356Z,4.60
2019-03-18T03:52:45.234Z,4.60
2019-03-18T03:55:26.346Z,4.50
2019-03-18T03:58:07.177Z,4.50
2019-03-18T04:00:48.452Z,4.50
2019-03-18T04:03:38.226Z,4.50
2019-03-18T04:06:12.393Z,4.40
2019-03-18T04:08:53.146Z,4.40
2019-03-18T04:11:33.552Z,4.50
2019-03-18T04:14:13.937Z,4.50
2019-03-18T04:17:01.824Z,4.30
2019-03-18T04:19:37.061Z,4.50
2019-03-18T04:22:17.838Z,4.50
2019-03-18T04:24:58.997Z,4.60
2019-03-18T04:27:39.817Z,4.60
2019-03-18T04:30:20.289Z,4.60
2019-03-18T04:33:01.181Z,4.50
2019-03-18T04:35:41.578Z,4.50
2019-03-18T04:38:22.222Z,4.40
2019-03-18T04:41:03.053Z,4.40
2019-03-18T04:43:43.004Z,4.40
2019-03-18T04:46:30.897Z,4.30
2019-03-18T04:52:12.201Z,4.40
2019-03-18T04:55:00.340Z,4.50
2019-03-18T04:57:49.714Z,4.40
2019-03-18T05:00:37.625Z,4.40
2019-03-18T05:06:19.488Z,4.50
2019-03-18T05:09:07.392Z,4.50
2019-03-18T05:11:55.319Z,4.50
2019-03-18T05:14:43.325Z,4.50
2019-03-18T05:20:38.377Z,4.50
2019-03-18T05:23:26.349Z,4.60
2019-03-18T05:25:55.327Z,4.60
2019-03-18T05:28:43.273Z,4.60
2019-03-18T05:31:31.280Z,4.60
2019-03-18T05:34:12.260Z,4.60
2019-03-18T05:36:53.184Z,4.60
2019-03-18T05:39:34.449Z,4.70
2019-03-18T05:42:14.899Z,4.60
2019-03-18T05:44:55.309Z,4.70
2019-03-18T05:47:39.426Z,4.80
2019-03-18T05:50:18.770Z,4.80
2019-03-18T05:52:59.990Z,4.80
2019-03-18T05:55:41.063Z,4.80
2019-03-18T05:58:21.420Z,4.80
2019-03-18T06:01:02.275Z,4.80
2019-03-18T06:03:43.256Z,4.90
2019-03-18T06:06:24.456Z,4.90
2019-03-18T06:09:05.346Z,4.90
2019-03-18T06:11:50.518Z,4.80
2019-03-18T06:14:21.842Z,4.80
2019-03-18T06:16:50.473Z,4.80
2019-03-18T06:22:26.539Z,4.90
2019-03-18T06:25:35.726Z,4.80
2019-03-18T06:31:28.940Z,4.90
2019-03-18T06:34:13.694Z,5.00
2019-03-18T06:36:54.672Z,5.00
2019-03-18T06:39:37.078Z,5.10
2019-03-18T06:42:18.828Z,5.20
2019-03-18T06:45:00.864Z,5.20
2019-03-18T06:50:32.566Z,5.20
2019-03-18T06:53:14.224Z,5.30
2019-03-18T06:55:56.301Z,5.30
2019-03-18T06:58:40.385Z,5.30
2019-03-18T07:01:21.764Z,5.40
2019-03-18T07:04:03.038Z,5.50
2019-03-18T07:12:55.297Z,5.40
2019-03-18T07:15:44.177Z,5.40
2019-03-18T07:18:44.416Z,5.40
2019-03-18T07:21:22.584Z,5.30
2019-03-18T07:24:30.872Z,5.30
2019-03-18T07:27:19.463Z,5.30
2019-03-18T07:30:27.230Z,5.40
2019-03-18T07:33:36.236Z,5.40
2019-03-18T07:36:24.133Z,5.40
2019-03-18T07:45:31.309Z,5.70
2019-03-18T07:48:40.104Z,5.90
2019-03-18T07:51:11.266Z,6.00
2019-03-18T07:54:00.823Z,6.20
2019-03-18T08:02:40.750Z,6.80
2019-03-18T08:05:29.923Z,7.10
2019-03-18T08:10:38.703Z,7.60
2019-03-18T08:13:12.085Z,7.80
2019-03-18T08:15:41.555Z,7.70
2019-03-18T08:18:10.573Z,7.60
2019-03-18T08:20:39.720Z,7.50
2019-03-18T08:23:10.525Z,7.40
2019-03-18T08:25:39.811Z,7.30
2019-03-18T08:28:10.182Z,7.30
2019-03-18T08:34:33.329Z,7.20
2019-03-18T08:37:04.360Z,7.30
2019-03-18T08:39:52.298Z,7.30
2019-03-18T08:42:40.233Z,7.30
2019-03-18T08:45:28.138Z,7.30
2019-03-18T08:48:16.205Z,7.40
2019-03-18T08:51:04.221Z,7.70
2019-03-18T08:53:52.167Z,8.20
2019-03-18T08:56:54.167Z,8.70
2019-03-18T08:59:29.644Z,8.90
2019-03-18T09:01:58.208Z,9.10
2019-03-18T09:04:26.826Z,9.00
2019-03-18T09:07:14.797Z,9.00
2019-03-18T09:10:02.736Z,9.20
2019-03-18T09:12:50.670Z,9.30
2019-03-18T09:15:38.601Z,9.30
2019-03-18T09:18:26.504Z,9.30
2019-03-18T09:21:14.445Z,9.30
2019-03-18T09:24:02.344Z,9.10
2019-03-18T09:27:01.950Z,8.70
2019-03-18T09:29:39.820Z,8.10
2019-03-18T09:32:27.780Z,7.70
2019-03-18T09:34:56.349Z,7.40
2019-03-18T09:37:24.918Z,7.20
2019-03-18T09:40:13.424Z,7.10
2019-03-18T09:43:01.331Z,6.90
2019-03-18T09:45:49.411Z,6.70
2019-03-18T09:48:38.798Z,6.60
2019-03-18T09:51:26.731Z,6.90
2019-03-18T09:54:14.665Z,7.30
2019-03-18T09:57:02.570Z,7.80
2019-03-18T09:59:50.534Z,8.10
2019-03-18T10:02:38.408Z,8.40
2019-03-18T10:05:26.374Z,8.70
2019-03-18T10:08:14.276Z,9.00
2019-03-18T10:11:02.221Z,9.40
2019-03-18T10:13:50.140Z,9.80
2019-03-18T10:16:38.086Z,10.20
2019-03-18T10:19:33.358Z,10.50
2019-03-18T10:22:15.793Z,10.70
2019-03-18T10:25:23.657Z,10.90
2019-03-18T10:28:11.603Z,11.00
2019-03-18T10:30:59.533Z,11.00
2019-03-18T10:33:47.440Z,11.20
2019-03-18T10:36:28.521Z,11.10
2019-03-18T10:39:09.746Z,11.00
2019-03-18T10:44:29.887Z,10.80
2019-03-18T10:47:11.054Z,10.80
2019-03-18T10:49:51.890Z,10.90
2019-03-18T10:52:32.382Z,11.00
2019-03-18T10:55:12.993Z,11.10
2019-03-18T10:57:53.921Z,11.10
2019-03-18T11:00:34.473Z,11.10
2019-03-18T11:03:15.260Z,11.00
2019-03-18T11:05:56.617Z,10.90
2019-03-18T11:08:37.069Z,10.80
2019-03-18T11:11:18.293Z,10.70
2019-03-18T11:13:59.669Z,10.60
2019-03-18T11:16:40.633Z,10.40
2019-03-18T11:19:21.854Z,10.40
2019-03-18T11:21:50.423Z,10.30
2019-03-18T11:24:19.024Z,9.90
2019-03-18T11:26:47.597Z,9.30
2019-03-18T11:29:35.535Z,8.90
2019-03-18T11:32:23.461Z,8.70
2019-03-18T11:35:04.118Z,8.80
2019-03-18T11:37:45.220Z,8.60
2019-03-18T11:40:26.374Z,8.20
2019-03-18T11:43:07.425Z,7.80
2019-03-18T11:45:48.282Z,7.40
2019-03-18T11:48:28.998Z,7.10
2019-03-18T11:51:09.961Z,6.90
2019-03-18T11:53:50.867Z,6.70
2019-03-18T11:56:32.167Z,6.70
2019-03-18T11:59:13.438Z,6.70
2019-03-18T12:01:54.529Z,6.80
2019-03-18T12:04:35.351Z,7.00
2019-03-18T12:07:15.895Z,7.20
2019-03-18T12:09:57.167Z,7.40
2019-03-18T12:12:38.322Z,7.20
2019-03-18T12:15:21.599Z,8.10
2019-03-18T12:18:02.118Z,8.30
2019-03-18T12:20:42.797Z,8.50
2019-03-18T12:23:23.582Z,8.60
2019-03-18T12:26:04.314Z,8.70
2019-03-18T12:28:45.561Z,8.80
2019-03-18T12:31:26.035Z,8.90
2019-03-18T12:34:07.170Z,9.00
2019-03-18T12:36:48.132Z,8.90
2019-03-18T12:39:28.645Z,9.00
2019-03-18T12:42:09.238Z,9.00
2019-03-18T12:44:50.234Z,9.00
2019-03-18T12:47:30.889Z,9.00
2019-03-18T12:49:59.502Z,9.20
2019-03-18T12:52:28.065Z,9.40
2019-03-18T12:54:56.624Z,9.40
2019-03-18T12:57:25.217Z,9.50
2019-03-18T12:59:53.881Z,9.40
2019-03-18T13:02:22.517Z,9.50
2019-03-18T13:04:51.121Z,9.40
2019-03-18T13:07:39.093Z,9.40
2019-03-18T13:10:27.093Z,9.30
2019-03-18T13:13:15.005Z,9.30
2019-03-18T13:16:02.957Z,9.30
2019-03-18T13:21:57.761Z,9.20
2019-03-18T13:24:45.671Z,9.20
2019-03-18T13:27:33.605Z,9.00
2019-03-18T13:30:40.862Z,8.70
2019-03-18T13:33:28.794Z,8.60
2019-03-18T13:36:10.057Z,8.70
2019-03-18T13:38:50.804Z,8.70
2019-03-18T13:41:31.370Z,8.90
2019-03-18T13:44:12.524Z,9.00
2019-03-18T13:46:52.232Z,9.10
2019-03-18T13:49:40.163Z,9.10
2019-03-18T13:52:28.101Z,9.10
2019-03-18T14:01:16.818Z,9.30
2019-03-18T14:04:04.759Z,9.30
2019-03-18T14:06:52.659Z,9.40
2019-03-18T14:12:14.972Z,9.40
2019-03-18T14:14:55.842Z,9.20
2019-03-18T14:17:36.550Z,9.10
2019-03-18T14:20:17.831Z,8.90
2019-03-18T14:22:58.212Z,8.80
2019-03-18T14:25:38.977Z,8.60
2019-03-18T14:28:19.915Z,8.50
2019-03-18T14:31:00.861Z,8.40
2019-03-18T14:33:41.219Z,8.40
2019-03-18T14:36:22.038Z,8.40
2019-03-18T14:39:02.771Z,8.50
2019-03-18T14:41:43.482Z,8.60
2019-03-18T14:44:24.229Z,8.80
2019-03-18T14:47:04.708Z,8.80
2019-03-18T14:49:46.470Z,8.80
2019-03-18T14:52:27.133Z,8.80
2019-03-18T14:55:10.214Z,8.80
2019-03-18T14:57:50.452Z,8.70
2019-03-18T15:00:31.521Z,8.70
2019-03-18T15:03:11.870Z,8.70
2019-03-18T15:05:52.378Z,8.50
2019-03-18T15:08:32.661Z,8.30
2019-03-18T15:11:13.931Z,8.20
2019-03-18T15:13:54.929Z,8.00
2019-03-18T15:16:35.417Z,7.90
2019-03-18T15:19:16.291Z,7.90
2019-03-18T15:21:44.879Z,7.90
2019-03-18T15:24:17.130Z,7.90
2019-03-18T15:26:44.421Z,7.70
2019-03-18T15:29:32.389Z,7.00
2019-03-18T15:32:20.332Z,6.50
2019-03-18T15:35:08.893Z,6.10
2019-03-18T15:37:49.690Z,6.00
2019-03-18T15:40:30.947Z,5.90
2019-03-18T15:43:11.310Z,5.90
2019-03-18T15:45:51.962Z,6.00
2019-03-18T15:48:32.693Z,6.00
2019-03-18T15:51:13.433Z,6.10
2019-03-18T15:53:53.841Z,6.10
2019-03-18T15:56:35.059Z,6.10
2019-03-18T15:59:16.022Z,6.20
2019-03-18T16:01:56.870Z,6.20
2019-03-18T16:04:25.711Z,6.20
2019-03-18T16:06:54.342Z,6.30
2019-03-18T16:09:42.206Z,6.40
2019-03-18T16:12:30.137Z,6.40
2019-03-18T16:15:18.122Z,6.50
2019-03-18T16:18:06.021Z,6.50
2019-03-18T16:20:54.031Z,6.90
2019-03-18T16:23:41.931Z,6.60
2019-03-18T16:26:29.986Z,6.70
2019-03-18T16:29:17.917Z,6.70
2019-03-18T16:31:46.499Z,6.70
2019-03-18T16:34:15.180Z,6.80
2019-03-18T16:36:43.793Z,6.80
2019-03-18T16:39:12.434Z,6.80
2019-03-18T16:41:40.979Z,6.80
2019-03-18T16:44:09.580Z,6.80
2019-03-18T16:46:38.176Z,6.80
2019-03-18T16:49:06.768Z,6.80
2019-03-18T16:51:35.328Z,6.80
2019-03-18T16:54:23.265Z,6.70
2019-03-18T16:57:11.178Z,6.70
2019-03-18T16:59:59.119Z,6.60
2019-03-18T17:08:47.760Z,6.50
2019-03-18T17:11:35.757Z,6.60
2019-03-18T17:17:30.561Z,6.50
2019-03-18T17:20:11.543Z,6.50
2019-03-18T17:22:52.749Z,6.50
2019-03-18T17:25:33.953Z,6.40
2019-03-18T17:28:15.161Z,6.30
2019-03-18T17:30:55.856Z,6.20
2019-03-18T17:33:36.222Z,6.20
2019-03-18T17:36:04.791Z,6.10
2019-03-18T17:38:33.382Z,6.10
2019-03-18T17:41:01.954Z,6.40
2019-03-18T17:43:30.538Z,6.00
2019-03-18T17:45:59.167Z,6.00
2019-03-18T17:48:27.721Z,5.90
2019-03-18T17:50:56.280Z,6.00
2019-03-18T17:53:24.877Z,6.00
2019-03-18T17:56:12.789Z,6.10
2019-03-18T17:59:00.725Z,6.10
2019-03-18T18:01:48.641Z,6.10
2019-03-18T18:04:36.569Z,6.10
2019-03-18T18:07:24.546Z,6.20
2019-03-18T18:10:12.508Z,6.20
2019-03-18T18:13:00.446Z,6.30
2019-03-18T18:15:48.352Z,6.30
2019-03-18T18:18:37.040Z,6.30
2019-03-18T18:21:24.942Z,6.30
2019-03-18T18:23:53.550Z,6.50
2019-03-18T18:26:22.109Z,6.90
2019-03-18T18:28:50.765Z,7.20
2019-03-18T18:31:19.372Z,7.20
2019-03-18T18:33:47.934Z,7.40
2019-03-18T18:36:16.500Z,7.40
2019-03-18T18:38:45.080Z,7.40
2019-03-18T18:41:25.464Z,7.30
2019-03-18T18:44:06.105Z,7.00
2019-03-18T18:46:47.000Z,6.60
2019-03-18T18:49:27.611Z,6.30
2019-03-18T18:52:08.185Z,6.00
2019-03-18T18:54:48.581Z,5.90
2019-03-18T19:03:33.049Z,5.40
2019-03-18T19:06:13.690Z,5.30
2019-03-18T19:08:54.574Z,5.30
2019-03-18T19:11:35.416Z,5.20
2019-03-18T19:14:16.355Z,5.20
2019-03-18T19:16:56.974Z,5.20
2019-03-18T19:19:38.085Z,5.10
2019-03-18T19:22:19.156Z,5.10
2019-03-18T19:24:58.864Z,5.10
2019-03-18T19:27:46.814Z,5.00
2019-03-18T19:30:34.890Z,4.90
2019-03-18T19:33:03.500Z,4.90
2019-03-18T19:35:32.057Z,5.00
2019-03-18T19:38:20.010Z,4.90
2019-03-18T19:40:49.189Z,4.90
2019-03-18T19:43:37.143Z,4.90
2019-03-18T19:46:25.057Z,4.90
2019-03-18T19:49:12.996Z,4.90
2019-03-18T19:52:00.894Z,4.90
2019-03-18T19:54:48.985Z,4.90
2019-03-18T19:57:36.962Z,5.00
2019-03-18T20:00:28.246Z,5.10
2019-03-18T20:03:16.148Z,5.00
2019-03-18T20:05:44.827Z,5.00
2019-03-18T20:08:32.768Z,4.90
2019-03-18T20:11:20.701Z,4.90
2019-03-18T20:14:08.636Z,4.80
2019-03-18T20:16:56.668Z,4.70
2019-03-18T20:19:44.612Z,4.80
2019-03-18T20:22:32.540Z,4.70
2019-03-18T20:25:20.525Z,4.70
2019-03-18T20:28:08.466Z,4.70
2019-03-18T20:30:56.431Z,4.70
2019-03-18T20:33:44.368Z,4.70
2019-03-18T20:36:32.314Z,4.60
2019-03-18T20:39:20.220Z,4.60
2019-03-18T20:42:00.667Z,4.60
2019-03-18T20:44:41.802Z,4.60
2019-03-18T20:47:23.014Z,4.60
2019-03-18T20:50:04.318Z,4.60
2019-03-18T20:52:44.781Z,4.50
2019-03-18T20:55:15.288Z,4.50
2019-03-18T20:58:03.232Z,4.50
2019-03-18T21:00:53.055Z,4.40
2019-03-18T21:03:40.717Z,4.40
2019-03-18T21:06:28.634Z,4.30
2019-03-18T21:09:16.605Z,4.30
2019-03-18T21:12:04.550Z,4.30
2019-03-18T21:14:52.465Z,4.30
2019-03-18T21:17:40.414Z,4.30
2019-03-18T21:20:28.481Z,4.30
2019-03-18T21:23:16.425Z,4.30
2019-03-18T21:26:04.345Z,4.30
2019-03-18T21:28:52.282Z,4.30
2019-03-18T21:31:40.185Z,4.30
2019-03-18T21:34:28.146Z,4.30
2019-03-18T21:37:30.451Z,4.20
2019-03-18T21:40:26.601Z,4.30
2019-03-18T21:43:07.626Z,4.30
2019-03-18T21:45:48.624Z,4.40
2019-03-18T21:48:29.382Z,4.40
2019-03-18T21:51:10.393Z,4.40
2019-03-18T21:53:51.238Z,4.40
2019-03-18T21:56:32.301Z,4.40
2019-03-18T21:59:12.886Z,4.40
2019-03-18T22:01:53.750Z,4.40
2019-03-18T22:04:34.605Z,4.40
2019-03-18T22:07:15.312Z,4.50
2019-03-18T22:09:56.085Z,4.60
2019-03-18T22:12:37.257Z,4.60
2019-03-18T22:15:18.006Z,4.60
2019-03-18T22:17:58.821Z,4.70
2019-03-18T22:20:39.325Z,4.60
2019-03-18T22:23:20.635Z,4.60
2019-03-18T22:26:01.659Z,4.60
2019-03-18T22:28:30.252Z,4.60
2019-03-18T22:31:18.170Z,4.60
2019-03-18T22:34:06.070Z,4.50
2019-03-18T22:36:54.064Z,4.50
2019-03-18T22:39:22.669Z,4.50
2019-03-18T22:41:51.250Z,4.40
2019-03-18T22:44:20.073Z,4.50
2019-03-18T22:46:48.668Z,4.40
2019-03-18T22:49:17.274Z,4.40
2019-03-18T22:51:45.833Z,4.40
2019-03-18T22:54:33.761Z,4.40
2019-03-18T22:57:21.665Z,4.40
2019-03-18T23:00:48.117Z,4.40
2019-03-18T23:03:36.062Z,4.50
2019-03-18T23:06:23.988Z,4.50
2019-03-18T23:12:05.830Z,4.50
2019-03-18T23:14:53.842Z,4.30
2019-03-18T23:17:41.809Z,4.40
2019-03-18T23:20:29.754Z,4.40
2019-03-18T23:23:20.239Z,4.40
2019-03-18T23:25:47.942Z,4.40
2019-03-18T23:28:16.511Z,4.40
2019-03-18T23:30:45.124Z,4.40
2019-03-18T23:33:33.025Z,4.40
2019-03-18T23:36:20.959Z,4.50
2019-03-18T23:39:08.888Z,4.50
2019-03-18T23:41:56.828Z,4.50
2019-03-18T23:44:44.737Z,4.40
2019-03-18T23:47:32.662Z,4.40
2019-03-18T23:50:20.573Z,4.40
2019-03-18T23:56:01.931Z,4.50
2019-03-18T23:58:49.862Z,4.50
